Fort Wayne, IN

3:57 AM EST on February 08, 2016 (GMT -0500)
Cedar Canyons | | Change Station
CLOSE
Current Station
Personal Weather Station
Location: Huntertown, IN
Elevation: 848 ft
Nearby Weather Stations

Elev 848 ft 41.24 °N, 85.14 °W | Updated 26 minutes ago

Mostly Cloudy
Mostly Cloudy
33.0 °F
Feels Like 33 °F
N
0.0
Wind Variable Wind from SSW
Gusts 1.0 mph

Today
High -- | Low -- °F
--% Chance of Precip.
Yesterday
High -- | Low -- °F
Precip. -- in
Pressure 29.67 in
Visibility 10.0 miles
Clouds Scattered Clouds 11000 ft
Windchill 33 °F
Dew Point 30 °F
Humidity 90%
Rainfall 0.00 in
Snow Depth Not available.
7:44 AM 6:05 PM
Waning Crescent, 0% visible
METAR KGWB 080835Z AUTO 20003KT 10SM SCT110 01/M01 A2967 RMK AO2
Pressure 29.67 in
Visibility 10.0 miles
Clouds Scattered Clouds 11000 ft
Windchill 33 °F
Dew Point 30 °F
Humidity 90%
Rainfall 0.00 in
Snow Depth Not available.
7:44 AM 6:05 PM
Waning Crescent, 0% visible
METAR KGWB 080835Z AUTO 20003KT 10SM SCT110 01/M01 A2967 RMK AO2

10-Day Weather Forecast

Almanac

Astronomy

Feb. 08, 2016 Rise Set
Actual Time
Civil Twilight
Nautical Twilight
Astronomical Twilight
Moon
Length of Visible Light
Length of Day
Tomorrow will be .
, % of the Moon is Illuminated

Today's Extremes

State Highs State Lows

Community

WunderPhotos

Upload Photos

1,891,412 photos uploaded!

WunderBlog® & News

Nearby

Air Quality

  Air Quality AQ Index Pollutant
Not available.

Snow Depth

Station Depth Elevation

Earthquake Activity

City Distance Mag. Time & Date
Minimum magnitude displayed is 2.5.

Coastal Water Temperatures

Place Temperature

Stations

Nearby Weather Stations

Station Location Temp. Windchill Dew Point Humidity Wind Precip. Elev Updated Type
                   

Watches & Warnings

There are currently no watches in effect.